Time,TemperatureF,DewpointF,PressureIn,WindDirection,WindDirectionDegrees,WindSpeedMPH,WindSpeedGustMPH,Humidity,HourlyPrecipIn,Conditions,Clouds,dailyrainin,SoftwareType,DateUTC
2013-08-20 00:00:00,65.1,61.5,30.06,West,278,0.0,0.0,88,0.00,OVC,,0.00,WeatherDisplay:10.37,2013-08-20 04:00:00,
2013-08-20 00:15:00,65.0,61.4,30.06,West,278,0.0,0.0,88,0.00,OVC,,0.00,WeatherDisplay:10.37,2013-08-20 04:15:00,
2013-08-20 00:30:00,64.9,61.2,30.06,West,278,0.0,0.0,88,0.00,OVC,,0.00,WeatherDisplay:10.37,2013-08-20 04:30:00,
2013-08-20 00:45:00,64.8,61.2,30.06,West,278,0.0,0.0,88,0.00,BKN,,0.00,WeatherDisplay:10.37,2013-08-20 04:45:00,
2013-08-20 01:00:00,64.8,61.2,30.06,West,278,0.0,0.0,88,0.00,BKN,,0.00,WeatherDisplay:10.37,2013-08-20 05:00:00,
2013-08-20 01:15:00,64.8,61.2,30.06,West,278,0.0,0.0,88,0.00,BKN,,0.00,WeatherDisplay:10.37,2013-08-20 05:15:00,
2013-08-20 01:30:00,64.8,61.2,30.06,West,278,0.0,0.0,88,0.00,BKN,,0.00,WeatherDisplay:10.37,2013-08-20 05:30:00,
2013-08-20 01:45:00,64.8,61.2,30.05,West,278,0.0,1.0,88,0.00,OVC,,0.00,WeatherDisplay:10.37,2013-08-20 05:45:00,
2013-08-20 02:00:00,64.7,61.4,30.05,West,278,0.0,0.0,89,0.00,OVC,,0.00,WeatherDisplay:10.37,2013-08-20 06:00:00,
2013-08-20 02:15:00,64.5,61.2,30.05,West,278,0.0,1.0,89,0.00,OVC,,0.00,WeatherDisplay:10.37,2013-08-20 06:15:00,
2013-08-20 02:30:00,64.3,60.7,30.05,West,278,0.0,0.0,88,0.00,OVC,,0.00,WeatherDisplay:10.37,2013-08-20 06:30:00,
2013-08-20 02:45:00,64.0,60.7,30.04,West,278,0.0,0.0,89,0.00,OVC,,0.00,WeatherDisplay:10.37,2013-08-20 06:45:00,
2013-08-20 03:00:00,63.7,60.1,30.04,West,278,0.0,0.0,88,0.00,OVC,,0.00,WeatherDisplay:10.37,2013-08-20 07:00:00,
2013-08-20 03:15:00,63.4,59.8,30.04,West,278,0.0,1.0,88,0.00,OVC,,0.00,WeatherDisplay:10.37,2013-08-20 07:15:00,
2013-08-20 03:30:00,63.0,59.7,30.04,West,278,0.0,0.0,89,0.00,OVC,,0.00,WeatherDisplay:10.37,2013-08-20 07:30:00,
2013-08-20 03:45:00,62.7,59.1,30.04,West,278,0.0,1.0,88,0.00,OVC,,0.00,WeatherDisplay:10.37,2013-08-20 07:45:00,
2013-08-20 04:00:00,62.4,59.1,30.04,West,278,0.0,0.0,89,0.00,OVC,,0.00,WeatherDisplay:10.37,2013-08-20 08:00:00,
2013-08-20 04:15:00,62.3,59.0,30.04,West,278,0.0,0.0,89,0.00,OVC,,0.00,WeatherDisplay:10.37,2013-08-20 08:15:00,
2013-08-20 04:30:00,62.1,58.9,30.04,West,278,0.0,0.0,89,0.00,OVC,,0.00,WeatherDisplay:10.37,2013-08-20 08:30:00,
2013-08-20 04:45:00,62.0,58.7,30.04,West,278,0.0,0.0,89,0.00,OVC,,0.00,WeatherDisplay:10.37,2013-08-20 08:45:00,
2013-08-20 05:00:00,61.8,58.5,30.05,West,278,0.0,0.0,89,0.00,OVC,,0.00,WeatherDisplay:10.37,2013-08-20 09:00:00,
2013-08-20 05:15:00,61.8,58.5,30.04,West,278,0.0,0.0,89,0.00,OVC,,0.00,WeatherDisplay:10.37,2013-08-20 09:15:00,
2013-08-20 05:30:00,61.7,58.4,30.05,West,278,0.0,0.0,89,0.00,OVC,,0.00,WeatherDisplay:10.37,2013-08-20 09:30:00,
2013-08-20 05:45:00,61.7,58.4,30.05,West,278,0.0,0.0,89,0.00,OVC,,0.00,WeatherDisplay:10.37,2013-08-20 09:45:00,
2013-08-20 06:00:00,62.0,58.7,30.05,West,278,0.0,0.0,89,0.00,OVC,,0.00,WeatherDisplay:10.37,2013-08-20 10:00:00,
2013-08-20 06:15:00,62.3,59.0,30.05,West,278,0.0,0.0,89,0.00,OVC,,0.00,WeatherDisplay:10.37,2013-08-20 10:15:00,
2013-08-20 06:30:00,62.5,59.2,30.05,West,278,0.0,0.0,89,0.00,OVC,,0.00,WeatherDisplay:10.37,2013-08-20 10:30:00,
2013-08-20 06:45:00,62.7,59.4,30.05,West,278,0.0,0.0,89,0.00,OVC,,0.00,WeatherDisplay:10.37,2013-08-20 10:45:00,
2013-08-20 07:00:00,62.8,59.5,30.06,West,278,0.0,0.0,89,0.00,OVC,,0.00,WeatherDisplay:10.37,2013-08-20 11:00:00,
2013-08-20 07:15:00,62.7,59.4,30.06,West,278,0.0,0.0,89,0.00,OVC,,0.00,WeatherDisplay:10.37,2013-08-20 11:15:00,
2013-08-20 07:30:00,62.5,59.2,30.06,West,278,0.0,0.0,89,0.00,OVC,,0.00,WeatherDisplay:10.37,2013-08-20 11:30:00,
2013-08-20 07:45:00,62.4,59.1,30.07,West,278,0.0,1.0,89,0.00,OVC,,0.00,WeatherDisplay:10.37,2013-08-20 11:45:00,
2013-08-20 08:00:00,62.6,59.3,30.07,West,278,0.0,0.0,89,0.00,OVC,,0.00,WeatherDisplay:10.37,2013-08-20 12:00:00,
2013-08-20 08:15:00,62.9,59.6,30.07,West,278,0.0,0.0,89,0.00,OVC,,0.00,WeatherDisplay:10.37,2013-08-20 12:15:00,
2013-08-20 08:30:00,63.3,60.3,30.07,West,278,0.0,0.0,90,0.00,OVC,,0.00,WeatherDisplay:10.37,2013-08-20 12:30:00,
2013-08-20 08:45:00,63.8,60.8,30.08,West,278,0.0,0.0,90,0.00,OVC,,0.00,WeatherDisplay:10.37,2013-08-20 12:45:00,
2013-08-20 09:00:00,64.1,61.1,30.08,West,278,0.0,0.0,90,0.00,OVC,,0.00,WeatherDisplay:10.37,2013-08-20 13:00:00,
2013-08-20 09:30:00,64.7,61.7,30.09,West,278,0.0,0.0,90,0.00,OVC,,0.00,WeatherDisplay:10.37,2013-08-20 13:30:00,
2013-08-20 09:45:00,65.3,62.3,30.09,West,278,0.0,0.0,90,0.00,OVC,,0.00,WeatherDisplay:10.37,2013-08-20 13:45:00,
2013-08-20 10:00:00,66.4,63.4,30.09,NE,40,1.0,4.0,90,0.00,OVC,,0.00,WeatherDisplay:10.37,2013-08-20 14:00:00,
2013-08-20 10:15:00,66.4,63.1,30.10,NE,42,0.0,3.0,89,0.00,OVC,,0.00,WeatherDisplay:10.37,2013-08-20 14:15:00,
2013-08-20 10:30:00,66.9,63.6,30.10,NE,42,0.0,1.0,89,0.00,OVC,,0.00,WeatherDisplay:10.37,2013-08-20 14:30:00,
2013-08-20 10:45:00,67.6,63.9,30.11,NE,42,0.0,1.0,88,0.00,OVC,,0.00,WeatherDisplay:10.37,2013-08-20 14:45:00,
2013-08-20 11:00:00,68.4,64.1,30.11,NE,42,0.0,2.0,86,0.00,OVC,,0.00,WeatherDisplay:10.37,2013-08-20 15:00:00,
2013-08-20 11:15:00,69.3,64.6,30.11,NE,42,0.0,1.0,85,0.00,OVC,,0.00,WeatherDisplay:10.37,2013-08-20 15:15:00,
2013-08-20 11:30:00,70.6,65.2,30.11,NE,42,0.0,1.0,83,0.00,OVC,,0.00,WeatherDisplay:10.37,2013-08-20 15:30:00,
2013-08-20 11:45:00,72.0,66.6,30.11,NE,42,0.0,1.0,83,0.00,OVC,,0.00,WeatherDisplay:10.37,2013-08-20 15:45:00,
2013-08-20 12:00:00,72.8,66.6,30.11,NE,43,0.0,3.0,81,0.00,OVC,,0.00,WeatherDisplay:10.37,2013-08-20 16:00:00,
2013-08-20 12:15:00,73.7,67.1,30.11,ENE,61,0.0,4.0,80,0.00,OVC,,0.00,WeatherDisplay:10.37,2013-08-20 16:15:00,
2013-08-20 12:30:00,73.7,67.5,30.10,ENE,61,1.0,4.0,81,0.00,OVC,,0.00,WeatherDisplay:10.37,2013-08-20 16:30:00,
2013-08-20 12:45:00,74.1,67.5,30.10,ENE,61,2.0,5.0,80,0.00,OVC,,0.00,WeatherDisplay:10.37,2013-08-20 16:45:00,
2013-08-20 13:00:00,74.0,67.1,30.10,ENE,65,3.0,7.0,79,0.00,OVC,,0.00,WeatherDisplay:10.37,2013-08-20 17:00:00,
2013-08-20 13:15:00,74.3,67.0,30.10,NNE,33,3.0,5.0,78,0.00,OVC,,0.00,WeatherDisplay:10.37,2013-08-20 17:15:00,
2013-08-20 13:30:00,74.1,67.2,30.09,ENE,70,0.0,7.0,79,0.00,OVC,,0.00,WeatherDisplay:10.37,2013-08-20 17:30:00,
2013-08-20 13:45:00,74.0,67.4,30.09,NE,44,1.0,6.0,80,0.00,FEW,,0.00,WeatherDisplay:10.37,2013-08-20 17:45:00,
2013-08-20 14:00:00,74.3,68.1,30.09,NE,35,1.0,5.0,81,0.00,FEW,,0.00,WeatherDisplay:10.37,2013-08-20 18:00:00,
2013-08-20 14:15:00,75.5,68.6,30.08,WNW,289,0.0,5.0,79,0.00,FEW,,0.00,WeatherDisplay:10.37,2013-08-20 18:15:00,
2013-08-20 14:30:00,76.8,69.4,30.07,WNW,288,0.0,6.0,78,0.00,FEW,,0.00,WeatherDisplay:10.37,2013-08-20 18:30:00,
2013-08-20 14:45:00,76.6,68.5,30.07,NNW,328,1.0,6.0,76,0.00,FEW,,0.00,WeatherDisplay:10.37,2013-08-20 18:45:00,
2013-08-20 15:00:00,77.5,69.3,30.06,NW,306,5.0,6.0,76,0.00,FEW,,0.00,WeatherDisplay:10.37,2013-08-20 19:00:00,
2013-08-20 15:15:00,77.9,69.0,30.05,WNW,299,2.0,6.0,74,0.00,FEW,,0.00,WeatherDisplay:10.37,2013-08-20 19:15:00,
2013-08-20 15:30:00,78.4,69.0,30.05,WNW,303,1.0,6.0,73,0.00,FEW,,0.00,WeatherDisplay:10.37,2013-08-20 19:30:00,
2013-08-20 15:45:00,78.2,68.0,30.03,North,0,0.0,7.0,71,0.00,FEW,,0.00,WeatherDisplay:10.37,2013-08-20 19:45:00,
2013-08-20 16:00:00,77.9,68.5,30.03,WNW,303,2.0,7.0,73,0.00,FEW,,0.00,WeatherDisplay:10.37,2013-08-20 20:00:00,
2013-08-20 16:15:00,77.6,67.9,30.03,North,11,1.0,6.0,72,0.00,FEW,,0.00,WeatherDisplay:10.37,2013-08-20 20:15:00,
2013-08-20 16:30:00,78.6,68.5,30.03,ENE,66,1.0,7.0,71,0.00,FEW,,0.00,WeatherDisplay:10.37,2013-08-20 20:30:00,
2013-08-20 16:45:00,79.0,68.4,30.03,NNW,333,1.0,5.0,70,0.00,FEW,,0.00,WeatherDisplay:10.37,2013-08-20 20:45:00,
2013-08-20 17:00:00,77.4,70.4,30.03,West,269,0.0,4.0,79,0.00,FEW,,0.00,WeatherDisplay:10.37,2013-08-20 21:00:00,
2013-08-20 17:15:00,76.6,68.8,30.03,West,280,0.0,4.0,77,0.00,FEW,,0.00,WeatherDisplay:10.37,2013-08-20 21:15:00,
2013-08-20 17:30:00,77.6,69.0,30.03,WNW,299,0.0,5.0,75,0.00,FEW,,0.00,WeatherDisplay:10.37,2013-08-20 21:30:00,
2013-08-20 17:45:00,77.9,68.2,30.03,NNW,343,0.0,4.0,72,0.00,CLR,,0.00,WeatherDisplay:10.37,2013-08-20 21:45:00,
2013-08-20 18:00:00,77.8,68.0,30.03,NW,307,1.0,4.0,72,0.00,CLR,,0.00,WeatherDisplay:10.37,2013-08-20 22:00:00,
2013-08-20 18:15:00,76.4,70.5,30.02,NNE,26,0.0,2.0,82,0.00,CLR,,0.00,WeatherDisplay:10.37,2013-08-20 22:15:00,
2013-08-20 18:30:00,74.7,69.5,30.03,NNE,24,0.0,2.0,84,0.00,CLR,,0.00,WeatherDisplay:10.37,2013-08-20 22:30:00,
2013-08-20 18:45:00,74.0,69.2,30.03,NNE,24,0.0,1.0,85,0.00,FEW,,0.00,WeatherDisplay:10.37,2013-08-20 22:45:00,
2013-08-20 19:00:00,73.5,68.7,30.03,NNE,24,0.0,1.0,85,0.00,FEW,,0.00,WeatherDisplay:10.37,2013-08-20 23:00:00,
2013-08-20 19:15:00,73.3,68.5,30.03,NNE,23,0.0,2.0,85,0.00,FEW,,0.00,WeatherDisplay:10.37,2013-08-20 23:15:00,
2013-08-20 19:30:00,72.8,68.0,30.03,NNE,17,0.0,1.0,85,0.00,FEW,,0.00,WeatherDisplay:10.37,2013-08-20 23:30:00,
2013-08-20 19:45:00,72.1,67.3,30.04,WSW,258,0.0,5.0,85,0.00,BKN,,0.00,WeatherDisplay:10.37,2013-08-20 23:45:00,
2013-08-20 20:00:00,71.8,66.7,30.05,West,269,0.0,6.0,84,0.00,BKN,,0.00,WeatherDisplay:10.37,2013-08-21 00:00:00,
2013-08-20 20:15:00,71.6,66.8,30.06,West,267,0.0,2.0,85,0.00,BKN,,0.00,WeatherDisplay:10.37,2013-08-21 00:15:00,
2013-08-20 20:30:00,71.0,66.3,30.06,NNW,333,0.0,2.0,85,0.00,BKN,,0.00,WeatherDisplay:10.37,2013-08-21 00:30:00,
2013-08-20 20:45:00,70.5,65.8,30.06,WNW,286,0.0,1.0,85,0.00,BKN,,0.00,WeatherDisplay:10.37,2013-08-21 00:45:00,
2013-08-20 21:00:00,69.9,65.5,30.06,West,280,0.0,2.0,86,0.00,BKN,,0.00,WeatherDisplay:10.37,2013-08-21 01:00:00,
2013-08-20 21:15:00,69.4,65.0,30.07,West,280,0.0,2.0,86,0.00,BKN,,0.00,WeatherDisplay:10.37,2013-08-21 01:15:00,
2013-08-20 21:30:00,69.0,64.6,30.07,West,280,0.0,2.0,86,0.00,BKN,,0.00,WeatherDisplay:10.37,2013-08-21 01:30:00,
2013-08-20 21:45:00,68.5,64.1,30.08,West,280,0.0,0.0,86,0.00,OVC,,0.00,WeatherDisplay:10.37,2013-08-21 01:45:00,
2013-08-20 22:00:00,68.1,63.8,30.08,West,280,0.0,0.0,86,0.00,OVC,,0.00,WeatherDisplay:10.37,2013-08-21 02:00:00,
2013-08-20 22:15:00,67.7,63.4,30.08,West,280,0.0,0.0,86,0.00,OVC,,0.00,WeatherDisplay:10.37,2013-08-21 02:15:00,
2013-08-20 22:30:00,67.2,63.2,30.09,West,280,0.0,1.0,87,0.00,OVC,,0.00,WeatherDisplay:10.37,2013-08-21 02:30:00,
2013-08-20 22:45:00,66.7,62.7,30.09,West,280,0.0,0.0,87,0.00,BKN,,0.00,WeatherDisplay:10.37,2013-08-21 02:45:00,
2013-08-20 23:00:00,66.3,62.3,30.10,West,280,0.0,0.0,87,0.00,BKN,,0.00,WeatherDisplay:10.37,2013-08-21 03:00:00,
2013-08-20 23:15:00,65.8,61.8,30.10,West,280,0.0,0.0,87,0.00,BKN,,0.00,WeatherDisplay:10.37,2013-08-21 03:15:00,
2013-08-20 23:30:00,65.5,61.5,30.11,West,280,0.0,0.0,87,0.00,BKN,,0.00,WeatherDisplay:10.37,2013-08-21 03:30:00,
2013-08-20 23:45:00,65.2,61.6,30.11,West,280,0.0,1.0,88,0.00,OVC,,0.00,WeatherDisplay:10.37,2013-08-21 03:45:00,